sensor_id;sensor_type;location;lat;lon;timestamp;P1;P2;P0
49708;PMS5003;35601;55.902;13.606;2023-02-27T00:00:17;6;3;
49708;PMS5003;35601;55.902;13.606;2023-02-27T00:02:41;4;4;
49708;PMS5003;35601;55.902;13.606;2023-02-27T00:05:07;2;2;
49708;PMS5003;35601;55.902;13.606;2023-02-27T00:07:32;4;1;
49708;PMS5003;35601;55.902;13.606;2023-02-27T00:09:58;6;3;
49708;PMS5003;35601;55.902;13.606;2023-02-27T00:12:23;3;2;
49708;PMS5003;35601;55.902;13.606;2023-02-27T00:14:49;2;2;
49708;PMS5003;35601;55.902;13.606;2023-02-27T00:17:14;2;1;
49708;PMS5003;35601;55.902;13.606;2023-02-27T00:19:40;3;1;
49708;PMS5003;35601;55.902;13.606;2023-02-27T00:22:05;1;1;
49708;PMS5003;35601;55.902;13.606;2023-02-27T00:24:31;1;1;
49708;PMS5003;35601;55.902;13.606;2023-02-27T00:26:56;2;1;
49708;PMS5003;35601;55.902;13.606;2023-02-27T00:29:22;2;1;
49708;PMS5003;35601;55.902;13.606;2023-02-27T00:31:47;1;1;
49708;PMS5003;35601;55.902;13.606;2023-02-27T00:34:13;1;1;
49708;PMS5003;35601;55.902;13.606;2023-02-27T00:36:38;1;1;
49708;PMS5003;35601;55.902;13.606;2023-02-27T00:39:04;1;1;
49708;PMS5003;35601;55.902;13.606;2023-02-27T00:41:29;2;2;
49708;PMS5003;35601;55.902;13.606;2023-02-27T00:43:55;2;2;
49708;PMS5003;35601;55.902;13.606;2023-02-27T00:46:21;2;2;
49708;PMS5003;35601;55.902;13.606;2023-02-27T00:48:46;3;1;
49708;PMS5003;35601;55.902;13.606;2023-02-27T00:51:12;2;2;
49708;PMS5003;35601;55.902;13.606;2023-02-27T00:53:37;3;3;
49708;PMS5003;35601;55.902;13.606;2023-02-27T00:56:03;2;2;
49708;PMS5003;35601;55.902;13.606;2023-02-27T00:58:28;2;2;
49708;PMS5003;35601;55.902;13.606;2023-02-27T01:00:53;3;3;
49708;PMS5003;35601;55.902;13.606;2023-02-27T01:03:19;3;2;
49708;PMS5003;35601;55.902;13.606;2023-02-27T01:05:45;3;3;
49708;PMS5003;35601;55.902;13.606;2023-02-27T01:08:10;4;2;
49708;PMS5003;35601;55.902;13.606;2023-02-27T01:10:36;9;7;
49708;PMS5003;35601;55.902;13.606;2023-02-27T01:13:01;4;4;
49708;PMS5003;35601;55.902;13.606;2023-02-27T01:15:27;3;3;
49708;PMS5003;35601;55.902;13.606;2023-02-27T01:17:52;4;3;
49708;PMS5003;35601;55.902;13.606;2023-02-27T01:20:18;6;3;
49708;PMS5003;35601;55.902;13.606;2023-02-27T01:22:43;2;2;
49708;PMS5003;35601;55.902;13.606;2023-02-27T01:25:09;2;2;
49708;PMS5003;35601;55.902;13.606;2023-02-27T01:27:34;3;3;
49708;PMS5003;35601;55.902;13.606;2023-02-27T01:30:00;3;3;
49708;PMS5003;35601;55.902;13.606;2023-02-27T01:32:25;1;1;
49708;PMS5003;35601;55.902;13.606;2023-02-27T01:34:51;4;2;
49708;PMS5003;35601;55.902;13.606;2023-02-27T01:37:16;2;2;
49708;PMS5003;35601;55.902;13.606;2023-02-27T01:39:42;1;1;
49708;PMS5003;35601;55.902;13.606;2023-02-27T01:42:10;3;3;
49708;PMS5003;35601;55.902;13.606;2023-02-27T01:44:33;2;2;
49708;PMS5003;35601;55.902;13.606;2023-02-27T01:46:58;3;2;
49708;PMS5003;35601;55.902;13.606;2023-02-27T01:49:24;3;2;
49708;PMS5003;35601;55.902;13.606;2023-02-27T01:51:50;4;3;
49708;PMS5003;35601;55.902;13.606;2023-02-27T01:54:16;2;2;
49708;PMS5003;35601;55.902;13.606;2023-02-27T01:56:40;5;5;
49708;PMS5003;35601;55.902;13.606;2023-02-27T01:59:06;5;1;
49708;PMS5003;35601;55.902;13.606;2023-02-27T02:01:32;6;3;
49708;PMS5003;35601;55.902;13.606;2023-02-27T02:03:58;3;3;
49708;PMS5003;35601;55.902;13.606;2023-02-27T02:06:23;1;1;
49708;PMS5003;35601;55.902;13.606;2023-02-27T02:08:48;3;2;
49708;PMS5003;35601;55.902;13.606;2023-02-27T02:11:14;2;2;
49708;PMS5003;35601;55.902;13.606;2023-02-27T02:13:39;2;2;
49708;PMS5003;35601;55.902;13.606;2023-02-27T02:16:09;3;2;
49708;PMS5003;35601;55.902;13.606;2023-02-27T02:18:32;5;3;
49708;PMS5003;35601;55.902;13.606;2023-02-27T02:28:15;2;2;
49708;PMS5003;35601;55.902;13.606;2023-02-27T02:30:45;3;3;
49708;PMS5003;35601;55.902;13.606;2023-02-27T02:35:40;3;2;
49708;PMS5003;35601;55.902;13.606;2023-02-27T02:40:23;8;3;
49708;PMS5003;35601;55.902;13.606;2023-02-27T02:42:46;3;2;
49708;PMS5003;35601;55.902;13.606;2023-02-27T02:45:12;6;3;
49708;PMS5003;35601;55.902;13.606;2023-02-27T02:47:39;3;3;
49708;PMS5003;35601;55.902;13.606;2023-02-27T02:50:05;3;3;
49708;PMS5003;35601;55.902;13.606;2023-02-27T02:52:29;7;3;
49708;PMS5003;35601;55.902;13.606;2023-02-27T02:54:55;3;2;
49708;PMS5003;35601;55.902;13.606;2023-02-27T02:57:20;6;3;
49708;PMS5003;35601;55.902;13.606;2023-02-27T02:59:46;2;2;
49708;PMS5003;35601;55.902;13.606;2023-02-27T03:02:10;1;1;
49708;PMS5003;35601;55.902;13.606;2023-02-27T03:04:37;2;2;
49708;PMS5003;35601;55.902;13.606;2023-02-27T03:07:02;2;1;
49708;PMS5003;35601;55.902;13.606;2023-02-27T03:09:27;2;2;
49708;PMS5003;35601;55.902;13.606;2023-02-27T03:11:52;3;3;
49708;PMS5003;35601;55.902;13.606;2023-02-27T03:14:19;3;2;
49708;PMS5003;35601;55.902;13.606;2023-02-27T03:16:43;3;3;
49708;PMS5003;35601;55.902;13.606;2023-02-27T03:19:09;1;1;
49708;PMS5003;35601;55.902;13.606;2023-02-27T03:21:35;3;3;
49708;PMS5003;35601;55.902;13.606;2023-02-27T03:24:00;1;1;
49708;PMS5003;35601;55.902;13.606;2023-02-27T03:26:27;3;2;
49708;PMS5003;35601;55.902;13.606;2023-02-27T03:28:52;2;1;
49708;PMS5003;35601;55.902;13.606;2023-02-27T03:31:18;5;3;
49708;PMS5003;35601;55.902;13.606;2023-02-27T03:33:42;2;2;
49708;PMS5003;35601;55.902;13.606;2023-02-27T03:36:08;3;3;
49708;PMS5003;35601;55.902;13.606;2023-02-27T03:38:34;6;2;
49708;PMS5003;35601;55.902;13.606;2023-02-27T03:41:01;3;2;
49708;PMS5003;35601;55.902;13.606;2023-02-27T03:43:26;6;5;
49708;PMS5003;35601;55.902;13.606;2023-02-27T03:45:52;3;2;
49708;PMS5003;35601;55.902;13.606;2023-02-27T03:48:15;2;2;
49708;PMS5003;35601;55.902;13.606;2023-02-27T03:50:40;2;2;
49708;PMS5003;35601;55.902;13.606;2023-02-27T03:53:08;3;3;
49708;PMS5003;35601;55.902;13.606;2023-02-27T03:55:32;5;3;
49708;PMS5003;35601;55.902;13.606;2023-02-27T03:57:57;2;2;
49708;PMS5003;35601;55.902;13.606;2023-02-27T04:00:23;6;3;
49708;PMS5003;35601;55.902;13.606;2023-02-27T04:02:49;2;2;
49708;PMS5003;35601;55.902;13.606;2023-02-27T04:05:14;5;2;
49708;PMS5003;35601;55.902;13.606;2023-02-27T04:07:42;5;1;
49708;PMS5003;35601;55.902;13.606;2023-02-27T04:10:16;5;3;
49708;PMS5003;35601;55.902;13.606;2023-02-27T04:12:36;3;2;
49708;PMS5003;35601;55.902;13.606;2023-02-27T04:15:00;3;2;
49708;PMS5003;35601;55.902;13.606;2023-02-27T04:17:22;3;3;
49708;PMS5003;35601;55.902;13.606;2023-02-27T04:19:59;3;2;
49708;PMS5003;35601;55.902;13.606;2023-02-27T04:22:16;2;2;
49708;PMS5003;35601;55.902;13.606;2023-02-27T04:24:40;7;5;
49708;PMS5003;35601;55.902;13.606;2023-02-27T04:27:06;2;2;
49708;PMS5003;35601;55.902;13.606;2023-02-27T04:29:31;6;3;
49708;PMS5003;35601;55.902;13.606;2023-02-27T04:31:56;3;3;
49708;PMS5003;35601;55.902;13.606;2023-02-27T04:34:22;11;8;
49708;PMS5003;35601;55.902;13.606;2023-02-27T04:36:46;13;11;
49708;PMS5003;35601;55.902;13.606;2023-02-27T04:39:13;18;13;
49708;PMS5003;35601;55.902;13.606;2023-02-27T04:41:38;13;9;
49708;PMS5003;35601;55.902;13.606;2023-02-27T04:44:02;6;6;
49708;PMS5003;35601;55.902;13.606;2023-02-27T04:46:28;16;11;
49708;PMS5003;35601;55.902;13.606;2023-02-27T04:48:54;52;37;
49708;PMS5003;35601;55.902;13.606;2023-02-27T04:51:19;36;32;
49708;PMS5003;35601;55.902;13.606;2023-02-27T04:53:45;25;24;
49708;PMS5003;35601;55.902;13.606;2023-02-27T04:56:11;22;18;
49708;PMS5003;35601;55.902;13.606;2023-02-27T04:58:36;20;18;
49708;PMS5003;35601;55.902;13.606;2023-02-27T05:01:01;24;19;
49708;PMS5003;35601;55.902;13.606;2023-02-27T05:03:27;30;27;
49708;PMS5003;35601;55.902;13.606;2023-02-27T05:05:52;33;29;
49708;PMS5003;35601;55.902;13.606;2023-02-27T05:08:18;19;18;
49708;PMS5003;35601;55.902;13.606;2023-02-27T05:10:44;24;15;
49708;PMS5003;35601;55.902;13.606;2023-02-27T05:13:08;63;46;
49708;PMS5003;35601;55.902;13.606;2023-02-27T05:15:34;56;33;
49708;PMS5003;35601;55.902;13.606;2023-02-27T05:17:59;53;41;
49708;PMS5003;35601;55.902;13.606;2023-02-27T05:20:24;49;40;
49708;PMS5003;35601;55.902;13.606;2023-02-27T05:22:51;18;12;
49708;PMS5003;35601;55.902;13.606;2023-02-27T05:25:25;6;4;
49708;PMS5003;35601;55.902;13.606;2023-02-27T05:27:41;2;2;
49708;PMS5003;35601;55.902;13.606;2023-02-27T05:30:08;8;6;
49708;PMS5003;35601;55.902;13.606;2023-02-27T05:32:33;12;8;
49708;PMS5003;35601;55.902;13.606;2023-02-27T05:34:58;4;4;
49708;PMS5003;35601;55.902;13.606;2023-02-27T05:37:23;3;3;
49708;PMS5003;35601;55.902;13.606;2023-02-27T05:39:47;6;6;
49708;PMS5003;35601;55.902;13.606;2023-02-27T05:42:14;7;4;
49708;PMS5003;35601;55.902;13.606;2023-02-27T05:44:39;4;3;
49708;PMS5003;35601;55.902;13.606;2023-02-27T05:47:04;6;4;
49708;PMS5003;35601;55.902;13.606;2023-02-27T05:49:29;4;3;
49708;PMS5003;35601;55.902;13.606;2023-02-27T05:51:54;6;6;
49708;PMS5003;35601;55.902;13.606;2023-02-27T05:54:21;6;6;
49708;PMS5003;35601;55.902;13.606;2023-02-27T05:56:45;4;4;
49708;PMS5003;35601;55.902;13.606;2023-02-27T05:59:12;7;7;
49708;PMS5003;35601;55.902;13.606;2023-02-27T06:01:36;9;8;
49708;PMS5003;35601;55.902;13.606;2023-02-27T06:04:01;20;13;
49708;PMS5003;35601;55.902;13.606;2023-02-27T06:06:28;34;28;
49708;PMS5003;35601;55.902;13.606;2023-02-27T06:08:52;71;52;
49708;PMS5003;35601;55.902;13.606;2023-02-27T06:11:18;76;57;
49708;PMS5003;35601;55.902;13.606;2023-02-27T06:13:43;75;60;
49708;PMS5003;35601;55.902;13.606;2023-02-27T06:16:09;41;33;
49708;PMS5003;35601;55.902;13.606;2023-02-27T06:18:34;43;31;
49708;PMS5003;35601;55.902;13.606;2023-02-27T06:21:00;55;46;
49708;PMS5003;35601;55.902;13.606;2023-02-27T06:23:26;66;48;
49708;PMS5003;35601;55.902;13.606;2023-02-27T06:25:51;61;44;
49708;PMS5003;35601;55.902;13.606;2023-02-27T06:28:16;53;37;
49708;PMS5003;35601;55.902;13.606;2023-02-27T06:30:42;17;11;
49708;PMS5003;35601;55.902;13.606;2023-02-27T06:33:08;21;14;
49708;PMS5003;35601;55.902;13.606;2023-02-27T06:35:33;9;8;
49708;PMS5003;35601;55.902;13.606;2023-02-27T06:37:59;30;21;
49708;PMS5003;35601;55.902;13.606;2023-02-27T06:40:24;26;18;
49708;PMS5003;35601;55.902;13.606;2023-02-27T06:42:50;9;7;
49708;PMS5003;35601;55.902;13.606;2023-02-27T06:45:15;5;5;
49708;PMS5003;35601;55.902;13.606;2023-02-27T06:47:41;8;7;
49708;PMS5003;35601;55.902;13.606;2023-02-27T06:50:06;7;5;
49708;PMS5003;35601;55.902;13.606;2023-02-27T06:52:31;11;5;
49708;PMS5003;35601;55.902;13.606;2023-02-27T06:54:57;12;9;
49708;PMS5003;35601;55.902;13.606;2023-02-27T06:57:22;17;10;
49708;PMS5003;35601;55.902;13.606;2023-02-27T06:59:47;10;8;
49708;PMS5003;35601;55.902;13.606;2023-02-27T07:02:13;9;7;
49708;PMS5003;35601;55.902;13.606;2023-02-27T07:04:38;19;16;
49708;PMS5003;35601;55.902;13.606;2023-02-27T07:07:04;18;16;
49708;PMS5003;35601;55.902;13.606;2023-02-27T07:09:29;19;12;
49708;PMS5003;35601;55.902;13.606;2023-02-27T07:11:55;15;9;
49708;PMS5003;35601;55.902;13.606;2023-02-27T07:14:22;11;10;
49708;PMS5003;35601;55.902;13.606;2023-02-27T07:16:46;11;9;
49708;PMS5003;35601;55.902;13.606;2023-02-27T07:19:11;8;7;
49708;PMS5003;35601;55.902;13.606;2023-02-27T07:21:36;9;9;
49708;PMS5003;35601;55.902;13.606;2023-02-27T07:24:02;11;10;
49708;PMS5003;35601;55.902;13.606;2023-02-27T07:26:27;21;15;
49708;PMS5003;35601;55.902;13.606;2023-02-27T07:28:53;26;22;
49708;PMS5003;35601;55.902;13.606;2023-02-27T07:31:18;11;9;
49708;PMS5003;35601;55.902;13.606;2023-02-27T07:33:44;8;8;
49708;PMS5003;35601;55.902;13.606;2023-02-27T07:36:09;11;9;
49708;PMS5003;35601;55.902;13.606;2023-02-27T07:38:36;10;8;
49708;PMS5003;35601;55.902;13.606;2023-02-27T07:41:01;9;8;
49708;PMS5003;35601;55.902;13.606;2023-02-27T07:43:26;8;8;
49708;PMS5003;35601;55.902;13.606;2023-02-27T07:45:51;12;8;
49708;PMS5003;35601;55.902;13.606;2023-02-27T07:48:17;13;8;
49708;PMS5003;35601;55.902;13.606;2023-02-27T07:50:43;10;9;
49708;PMS5003;35601;55.902;13.606;2023-02-27T07:53:08;9;8;
49708;PMS5003;35601;55.902;13.606;2023-02-27T07:55:33;10;6;
49708;PMS5003;35601;55.902;13.606;2023-02-27T07:57:58;6;4;
49708;PMS5003;35601;55.902;13.606;2023-02-27T08:00:25;6;5;
49708;PMS5003;35601;55.902;13.606;2023-02-27T08:02:49;5;4;
49708;PMS5003;35601;55.902;13.606;2023-02-27T08:05:16;4;4;
49708;PMS5003;35601;55.902;13.606;2023-02-27T08:07:41;4;4;
49708;PMS5003;35601;55.902;13.606;2023-02-27T08:10:07;5;5;
49708;PMS5003;35601;55.902;13.606;2023-02-27T08:12:31;6;4;
49708;PMS5003;35601;55.902;13.606;2023-02-27T08:14:57;6;5;
49708;PMS5003;35601;55.902;13.606;2023-02-27T08:17:23;5;5;
49708;PMS5003;35601;55.902;13.606;2023-02-27T08:19:47;5;5;
49708;PMS5003;35601;55.902;13.606;2023-02-27T08:22:12;7;5;
49708;PMS5003;35601;55.902;13.606;2023-02-27T08:24:38;6;5;
49708;PMS5003;35601;55.902;13.606;2023-02-27T08:27:04;4;4;
49708;PMS5003;35601;55.902;13.606;2023-02-27T08:29:29;4;3;
49708;PMS5003;35601;55.902;13.606;2023-02-27T08:31:54;10;6;
49708;PMS5003;35601;55.902;13.606;2023-02-27T08:34:21;6;5;
49708;PMS5003;35601;55.902;13.606;2023-02-27T08:36:45;9;6;
49708;PMS5003;35601;55.902;13.606;2023-02-27T08:39:10;4;3;
49708;PMS5003;35601;55.902;13.606;2023-02-27T08:41:37;6;5;
49708;PMS5003;35601;55.902;13.606;2023-02-27T08:44:02;5;5;
49708;PMS5003;35601;55.902;13.606;2023-02-27T08:46:26;4;4;
49708;PMS5003;35601;55.902;13.606;2023-02-27T08:48:52;26;22;
49708;PMS5003;35601;55.902;13.606;2023-02-27T08:51:18;12;12;
49708;PMS5003;35601;55.902;13.606;2023-02-27T08:53:43;8;8;
49708;PMS5003;35601;55.902;13.606;2023-02-27T08:56:10;10;8;
49708;PMS5003;35601;55.902;13.606;2023-02-27T08:58:34;11;10;
49708;PMS5003;35601;55.902;13.606;2023-02-27T09:00:59;11;8;
49708;PMS5003;35601;55.902;13.606;2023-02-27T09:03:24;7;7;
49708;PMS5003;35601;55.902;13.606;2023-02-27T09:05:51;11;8;
49708;PMS5003;35601;55.902;13.606;2023-02-27T09:08:15;7;6;
49708;PMS5003;35601;55.902;13.606;2023-02-27T09:10:41;7;7;
49708;PMS5003;35601;55.902;13.606;2023-02-27T09:13:06;12;7;
49708;PMS5003;35601;55.902;13.606;2023-02-27T09:15:32;8;7;
49708;PMS5003;35601;55.902;13.606;2023-02-27T09:17:57;10;7;
49708;PMS5003;35601;55.902;13.606;2023-02-27T09:20:22;7;7;
49708;PMS5003;35601;55.902;13.606;2023-02-27T09:22:48;8;8;
49708;PMS5003;35601;55.902;13.606;2023-02-27T09:25:15;8;7;
49708;PMS5003;35601;55.902;13.606;2023-02-27T09:27:40;12;9;
49708;PMS5003;35601;55.902;13.606;2023-02-27T09:30:04;8;8;
49708;PMS5003;35601;55.902;13.606;2023-02-27T09:32:29;10;7;
49708;PMS5003;35601;55.902;13.606;2023-02-27T09:34:54;10;7;
49708;PMS5003;35601;55.902;13.606;2023-02-27T09:37:20;5;5;
49708;PMS5003;35601;55.902;13.606;2023-02-27T09:39:47;8;8;
49708;PMS5003;35601;55.902;13.606;2023-02-27T09:42:13;13;9;
49708;PMS5003;35601;55.902;13.606;2023-02-27T09:44:36;7;7;
49708;PMS5003;35601;55.902;13.606;2023-02-27T09:47:02;10;10;
49708;PMS5003;35601;55.902;13.606;2023-02-27T09:49:27;8;7;
49708;PMS5003;35601;55.902;13.606;2023-02-27T09:51:52;8;8;
49708;PMS5003;35601;55.902;13.606;2023-02-27T09:54:18;8;7;
49708;PMS5003;35601;55.902;13.606;2023-02-27T09:56:44;10;7;
49708;PMS5003;35601;55.902;13.606;2023-02-27T09:59:11;9;7;
49708;PMS5003;35601;55.902;13.606;2023-02-27T10:01:34;7;6;
49708;PMS5003;35601;55.902;13.606;2023-02-27T10:04:06;6;6;
49708;PMS5003;35601;55.902;13.606;2023-02-27T10:06:25;10;8;
49708;PMS5003;35601;55.902;13.606;2023-02-27T10:08:56;8;7;
49708;PMS5003;35601;55.902;13.606;2023-02-27T10:11:16;16;12;
49708;PMS5003;35601;55.902;13.606;2023-02-27T10:13:44;8;7;
49708;PMS5003;35601;55.902;13.606;2023-02-27T10:16:07;7;7;
49708;PMS5003;35601;55.902;13.606;2023-02-27T10:18:32;9;7;
49708;PMS5003;35601;55.902;13.606;2023-02-27T10:20:57;7;7;
49708;PMS5003;35601;55.902;13.606;2023-02-27T10:23:25;7;7;
49708;PMS5003;35601;55.902;13.606;2023-02-27T10:25:48;7;6;
49708;PMS5003;35601;55.902;13.606;2023-02-27T10:28:14;9;7;
49708;PMS5003;35601;55.902;13.606;2023-02-27T10:30:38;6;5;
49708;PMS5003;35601;55.902;13.606;2023-02-27T10:33:06;11;9;
49708;PMS5003;35601;55.902;13.606;2023-02-27T10:35:31;9;7;
49708;PMS5003;35601;55.902;13.606;2023-02-27T10:37:56;7;6;
49708;PMS5003;35601;55.902;13.606;2023-02-27T10:40:20;6;6;
49708;PMS5003;35601;55.902;13.606;2023-02-27T10:42:45;8;6;
49708;PMS5003;35601;55.902;13.606;2023-02-27T10:45:11;8;6;
49708;PMS5003;35601;55.902;13.606;2023-02-27T10:47:38;6;5;
49708;PMS5003;35601;55.902;13.606;2023-02-27T10:50:03;11;7;
49708;PMS5003;35601;55.902;13.606;2023-02-27T10:52:27;8;6;
49708;PMS5003;35601;55.902;13.606;2023-02-27T10:54:52;10;8;
49708;PMS5003;35601;55.902;13.606;2023-02-27T10:57:19;6;5;
49708;PMS5003;35601;55.902;13.606;2023-02-27T10:59:49;5;5;
49708;PMS5003;35601;55.902;13.606;2023-02-27T11:04:35;6;5;
49708;PMS5003;35601;55.902;13.606;2023-02-27T11:07:00;5;5;
49708;PMS5003;35601;55.902;13.606;2023-02-27T11:09:28;5;5;
49708;PMS5003;35601;55.902;13.606;2023-02-27T11:11:51;4;4;
49708;PMS5003;35601;55.902;13.606;2023-02-27T11:14:23;5;5;
49708;PMS5003;35601;55.902;13.606;2023-02-27T11:16:44;8;6;
49708;PMS5003;35601;55.902;13.606;2023-02-27T11:19:06;6;5;
49708;PMS5003;35601;55.902;13.606;2023-02-27T11:21:31;5;5;
49708;PMS5003;35601;55.902;13.606;2023-02-27T11:23:59;6;6;
49708;PMS5003;35601;55.902;13.606;2023-02-27T11:26:24;8;6;
49708;PMS5003;35601;55.902;13.606;2023-02-27T11:31:14;5;5;
49708;PMS5003;35601;55.902;13.606;2023-02-27T11:33:46;10;7;
49708;PMS5003;35601;55.902;13.606;2023-02-27T11:36:05;4;4;
49708;PMS5003;35601;55.902;13.606;2023-02-27T11:38:29;7;5;
49708;PMS5003;35601;55.902;13.606;2023-02-27T11:40:56;7;6;
49708;PMS5003;35601;55.902;13.606;2023-02-27T11:43:21;3;3;
49708;PMS5003;35601;55.902;13.606;2023-02-27T11:45:49;6;5;
49708;PMS5003;35601;55.902;13.606;2023-02-27T11:48:15;6;5;
49708;PMS5003;35601;55.902;13.606;2023-02-27T11:53:08;7;5;
49708;PMS5003;35601;55.902;13.606;2023-02-27T11:55:26;4;4;
49708;PMS5003;35601;55.902;13.606;2023-02-27T11:57:54;8;6;
49708;PMS5003;35601;55.902;13.606;2023-02-27T12:00:17;6;3;
49708;PMS5003;35601;55.902;13.606;2023-02-27T12:02:44;7;6;
49708;PMS5003;35601;55.902;13.606;2023-02-27T12:05:10;4;4;
49708;PMS5003;35601;55.902;13.606;2023-02-27T12:07:34;3;3;
49708;PMS5003;35601;55.902;13.606;2023-02-27T12:09:59;3;3;
49708;PMS5003;35601;55.902;13.606;2023-02-27T12:12:23;6;6;
49708;PMS5003;35601;55.902;13.606;2023-02-27T12:14:51;4;4;
49708;PMS5003;35601;55.902;13.606;2023-02-27T12:17:18;6;3;
49708;PMS5003;35601;55.902;13.606;2023-02-27T12:19:41;10;8;
49708;PMS5003;35601;55.902;13.606;2023-02-27T12:22:08;6;4;
49708;PMS5003;35601;55.902;13.606;2023-02-27T12:24:30;5;3;
49708;PMS5003;35601;55.902;13.606;2023-02-27T12:26:56;6;5;
49708;PMS5003;35601;55.902;13.606;2023-02-27T12:29:22;7;5;
49708;PMS5003;35601;55.902;13.606;2023-02-27T12:31:47;11;11;
49708;PMS5003;35601;55.902;13.606;2023-02-27T12:34:14;12;10;
49708;PMS5003;35601;55.902;13.606;2023-02-27T12:36:37;12;10;
49708;PMS5003;35601;55.902;13.606;2023-02-27T12:39:02;3;3;
49708;PMS5003;35601;55.902;13.606;2023-02-27T12:41:33;8;5;
49708;PMS5003;35601;55.902;13.606;2023-02-27T12:43:55;7;7;
49708;PMS5003;35601;55.902;13.606;2023-02-27T12:46:23;9;9;
49708;PMS5003;35601;55.902;13.606;2023-02-27T12:48:48;5;5;
49708;PMS5003;35601;55.902;13.606;2023-02-27T12:51:12;6;6;
49708;PMS5003;35601;55.902;13.606;2023-02-27T12:53:41;5;5;
49708;PMS5003;35601;55.902;13.606;2023-02-27T12:56:01;6;5;
49708;PMS5003;35601;55.902;13.606;2023-02-27T12:58:29;4;4;
49708;PMS5003;35601;55.902;13.606;2023-02-27T13:00:50;6;5;
49708;PMS5003;35601;55.902;13.606;2023-02-27T13:03:18;8;4;
49708;PMS5003;35601;55.902;13.606;2023-02-27T13:05:42;4;4;
49708;PMS5003;35601;55.902;13.606;2023-02-27T13:08:08;8;6;
49708;PMS5003;35601;55.902;13.606;2023-02-27T13:10:32;7;7;
49708;PMS5003;35601;55.902;13.606;2023-02-27T13:12:57;5;4;
49708;PMS5003;35601;55.902;13.606;2023-02-27T13:15:22;10;8;
49708;PMS5003;35601;55.902;13.606;2023-02-27T13:17:48;5;4;
49708;PMS5003;35601;55.902;13.606;2023-02-27T13:20:21;6;3;
49708;PMS5003;35601;55.902;13.606;2023-02-27T13:22:39;6;4;
49708;PMS5003;35601;55.902;13.606;2023-02-27T13:25:04;2;2;
49708;PMS5003;35601;55.902;13.606;2023-02-27T13:27:30;3;3;
49708;PMS5003;35601;55.902;13.606;2023-02-27T13:29:57;7;6;
49708;PMS5003;35601;55.902;13.606;2023-02-27T13:32:21;1;1;
49708;PMS5003;35601;55.902;13.606;2023-02-27T13:34:45;3;2;
49708;PMS5003;35601;55.902;13.606;2023-02-27T13:37:09;4;3;
49708;PMS5003;35601;55.902;13.606;2023-02-27T13:39:49;7;5;
49708;PMS5003;35601;55.902;13.606;2023-02-27T13:42:00;12;12;
49708;PMS5003;35601;55.902;13.606;2023-02-27T13:46:51;4;4;
49708;PMS5003;35601;55.902;13.606;2023-02-27T13:49:21;4;4;
49708;PMS5003;35601;55.902;13.606;2023-02-27T13:51:45;3;3;
49708;PMS5003;35601;55.902;13.606;2023-02-27T13:54:07;4;4;
49708;PMS5003;35601;55.902;13.606;2023-02-27T13:56:32;3;3;
49708;PMS5003;35601;55.902;13.606;2023-02-27T13:58:57;4;4;
49708;PMS5003;35601;55.902;13.606;2023-02-27T14:01:24;8;5;
49708;PMS5003;35601;55.902;13.606;2023-02-27T14:03:52;7;7;
49708;PMS5003;35601;55.902;13.606;2023-02-27T14:06:13;6;5;
49708;PMS5003;35601;55.902;13.606;2023-02-27T14:15:55;5;4;
49708;PMS5003;35601;55.902;13.606;2023-02-27T14:20:49;5;5;
49708;PMS5003;35601;55.902;13.606;2023-02-27T14:23:17;2;2;
49708;PMS5003;35601;55.902;13.606;2023-02-27T14:25:35;7;4;
49708;PMS5003;35601;55.902;13.606;2023-02-27T14:28:00;7;5;
49708;PMS5003;35601;55.902;13.606;2023-02-27T14:30:28;4;3;
49708;PMS5003;35601;55.902;13.606;2023-02-27T14:32:53;3;3;
49708;PMS5003;35601;55.902;13.606;2023-02-27T14:35:16;2;2;
49708;PMS5003;35601;55.902;13.606;2023-02-27T14:37:42;1;1;
49708;PMS5003;35601;55.902;13.606;2023-02-27T14:42:38;4;4;
49708;PMS5003;35601;55.902;13.606;2023-02-27T14:44:57;4;3;
49708;PMS5003;35601;55.902;13.606;2023-02-27T14:47:26;3;3;
49708;PMS5003;35601;55.902;13.606;2023-02-27T14:49:50;4;4;
49708;PMS5003;35601;55.902;13.606;2023-02-27T14:52:16;4;4;
49708;PMS5003;35601;55.902;13.606;2023-02-27T14:54:38;8;7;
49708;PMS5003;35601;55.902;13.606;2023-02-27T14:57:04;4;4;
49708;PMS5003;35601;55.902;13.606;2023-02-27T14:59:29;4;3;
49708;PMS5003;35601;55.902;13.606;2023-02-27T15:01:54;4;3;
49708;PMS5003;35601;55.902;13.606;2023-02-27T15:04:19;1;1;
49708;PMS5003;35601;55.902;13.606;2023-02-27T15:06:45;11;10;
49708;PMS5003;35601;55.902;13.606;2023-02-27T15:09:16;20;19;
49708;PMS5003;35601;55.902;13.606;2023-02-27T15:11:38;10;9;
49708;PMS5003;35601;55.902;13.606;2023-02-27T15:14:01;7;5;
49708;PMS5003;35601;55.902;13.606;2023-02-27T15:16:28;9;9;
49708;PMS5003;35601;55.902;13.606;2023-02-27T15:18:52;13;10;
49708;PMS5003;35601;55.902;13.606;2023-02-27T15:21:17;10;7;
49708;PMS5003;35601;55.902;13.606;2023-02-27T15:23:42;5;5;
49708;PMS5003;35601;55.902;13.606;2023-02-27T15:26:09;6;5;
49708;PMS5003;35601;55.902;13.606;2023-02-27T15:28:34;6;6;
49708;PMS5003;35601;55.902;13.606;2023-02-27T15:30:57;8;5;
49708;PMS5003;35601;55.902;13.606;2023-02-27T15:33:25;6;4;
49708;PMS5003;35601;55.902;13.606;2023-02-27T15:35:48;7;7;
49708;PMS5003;35601;55.902;13.606;2023-02-27T15:40:38;4;4;
49708;PMS5003;35601;55.902;13.606;2023-02-27T15:43:04;5;5;
49708;PMS5003;35601;55.902;13.606;2023-02-27T15:45:30;5;4;
49708;PMS5003;35601;55.902;13.606;2023-02-27T15:47:55;5;5;
49708;PMS5003;35601;55.902;13.606;2023-02-27T15:50:23;4;4;
49708;PMS5003;35601;55.902;13.606;2023-02-27T15:52:50;5;5;
49708;PMS5003;35601;55.902;13.606;2023-02-27T15:55:12;11;6;
49708;PMS5003;35601;55.902;13.606;2023-02-27T15:57:36;6;4;
49708;PMS5003;35601;55.902;13.606;2023-02-27T16:00:03;9;8;
49708;PMS5003;35601;55.902;13.606;2023-02-27T16:02:28;7;7;
49708;PMS5003;35601;55.902;13.606;2023-02-27T16:04:53;12;9;
49708;PMS5003;35601;55.902;13.606;2023-02-27T16:07:19;24;19;
49708;PMS5003;35601;55.902;13.606;2023-02-27T16:09:46;27;24;
49708;PMS5003;35601;55.902;13.606;2023-02-27T16:12:11;26;19;
49708;PMS5003;35601;55.902;13.606;2023-02-27T16:14:36;36;29;
49708;PMS5003;35601;55.902;13.606;2023-02-27T16:17:00;33;27;
49708;PMS5003;35601;55.902;13.606;2023-02-27T16:19:26;22;12;
49708;PMS5003;35601;55.902;13.606;2023-02-27T16:24:17;9;8;
49708;PMS5003;35601;55.902;13.606;2023-02-27T16:26:41;8;6;
49708;PMS5003;35601;55.902;13.606;2023-02-27T16:29:14;7;7;
49708;PMS5003;35601;55.902;13.606;2023-02-27T16:31:33;10;9;
49708;PMS5003;35601;55.902;13.606;2023-02-27T16:33:58;8;8;
49708;PMS5003;35601;55.902;13.606;2023-02-27T16:36:24;9;6;
49708;PMS5003;35601;55.902;13.606;2023-02-27T16:38:49;6;5;
49708;PMS5003;35601;55.902;13.606;2023-02-27T16:41:15;8;8;
49708;PMS5003;35601;55.902;13.606;2023-02-27T16:43:39;11;7;
49708;PMS5003;35601;55.902;13.606;2023-02-27T16:46:04;10;6;
49708;PMS5003;35601;55.902;13.606;2023-02-27T16:48:30;4;4;
49708;PMS5003;35601;55.902;13.606;2023-02-27T16:50:55;5;4;
49708;PMS5003;35601;55.902;13.606;2023-02-27T16:53:21;3;3;